sensor_id;sensor_type;location;lat;lon;timestamp;P1;durP1;ratioP1;P2;durP2;ratioP2
15673;SDS011;7937;48.090;16.212;2023-02-08T00:01:45;22.57;;;11.80;;
15673;SDS011;7937;48.090;16.212;2023-02-08T00:04:47;19.93;;;10.47;;
15673;SDS011;7937;48.090;16.212;2023-02-08T00:07:49;17.87;;;9.90;;
15673;SDS011;7937;48.090;16.212;2023-02-08T00:10:52;19.60;;;11.13;;
15673;SDS011;7937;48.090;16.212;2023-02-08T00:13:54;18.33;;;10.40;;
15673;SDS011;7937;48.090;16.212;2023-02-08T00:16:56;19.97;;;11.20;;
15673;SDS011;7937;48.090;16.212;2023-02-08T00:19:58;20.07;;;10.83;;
15673;SDS011;7937;48.090;16.212;2023-02-08T00:23:00;19.90;;;11.30;;
15673;SDS011;7937;48.090;16.212;2023-02-08T00:26:02;24.37;;;11.77;;
15673;SDS011;7937;48.090;16.212;2023-02-08T00:29:04;19.27;;;10.87;;
15673;SDS011;7937;48.090;16.212;2023-02-08T00:32:08;19.60;;;10.10;;
15673;SDS011;7937;48.090;16.212;2023-02-08T00:35:11;22.10;;;12.33;;
15673;SDS011;7937;48.090;16.212;2023-02-08T00:38:13;17.13;;;10.60;;
15673;SDS011;7937;48.090;16.212;2023-02-08T00:41:15;19.20;;;10.50;;
15673;SDS011;7937;48.090;16.212;2023-02-08T00:44:17;19.17;;;10.60;;
15673;SDS011;7937;48.090;16.212;2023-02-08T00:47:19;18.07;;;10.73;;
15673;SDS011;7937;48.090;16.212;2023-02-08T00:50:21;20.00;;;10.40;;
15673;SDS011;7937;48.090;16.212;2023-02-08T00:53:23;18.57;;;9.63;;
15673;SDS011;7937;48.090;16.212;2023-02-08T00:56:26;17.73;;;9.97;;
15673;SDS011;7937;48.090;16.212;2023-02-08T00:59:28;20.10;;;10.97;;
15673;SDS011;7937;48.090;16.212;2023-02-08T01:02:30;21.83;;;10.77;;
15673;SDS011;7937;48.090;16.212;2023-02-08T01:05:32;18.73;;;9.93;;
15673;SDS011;7937;48.090;16.212;2023-02-08T01:08:35;17.70;;;10.00;;
15673;SDS011;7937;48.090;16.212;2023-02-08T01:11:37;20.70;;;11.20;;
15673;SDS011;7937;48.090;16.212;2023-02-08T01:14:39;20.23;;;11.10;;
15673;SDS011;7937;48.090;16.212;2023-02-08T01:17:41;17.17;;;10.60;;
15673;SDS011;7937;48.090;16.212;2023-02-08T01:20:44;21.90;;;10.17;;
15673;SDS011;7937;48.090;16.212;2023-02-08T01:23:46;21.13;;;10.73;;
15673;SDS011;7937;48.090;16.212;2023-02-08T01:26:49;23.13;;;11.73;;
15673;SDS011;7937;48.090;16.212;2023-02-08T01:29:51;18.93;;;10.70;;
15673;SDS011;7937;48.090;16.212;2023-02-08T01:32:53;18.80;;;10.43;;
15673;SDS011;7937;48.090;16.212;2023-02-08T01:35:55;20.27;;;11.77;;
15673;SDS011;7937;48.090;16.212;2023-02-08T01:38:57;19.27;;;11.17;;
15673;SDS011;7937;48.090;16.212;2023-02-08T01:42:00;20.60;;;11.13;;
15673;SDS011;7937;48.090;16.212;2023-02-08T01:48:19;21.00;;;10.67;;
15673;SDS011;7937;48.090;16.212;2023-02-08T01:51:29;21.30;;;11.47;;
15673;SDS011;7937;48.090;16.212;2023-02-08T01:54:36;20.63;;;10.93;;
15673;SDS011;7937;48.090;16.212;2023-02-08T01:57:41;19.30;;;11.90;;
15673;SDS011;7937;48.090;16.212;2023-02-08T02:00:45;19.80;;;10.73;;
15673;SDS011;7937;48.090;16.212;2023-02-08T02:03:48;20.70;;;11.67;;
15673;SDS011;7937;48.090;16.212;2023-02-08T02:06:51;20.60;;;10.80;;
15673;SDS011;7937;48.090;16.212;2023-02-08T02:10:09;23.83;;;12.07;;
15673;SDS011;7937;48.090;16.212;2023-02-08T02:13:16;22.07;;;11.53;;
15673;SDS011;7937;48.090;16.212;2023-02-08T02:16:24;17.80;;;10.83;;
15673;SDS011;7937;48.090;16.212;2023-02-08T02:19:30;20.70;;;11.43;;
15673;SDS011;7937;48.090;16.212;2023-02-08T02:32:38;18.30;;;11.57;;
15673;SDS011;7937;48.090;16.212;2023-02-08T02:39:01;19.40;;;10.87;;
15673;SDS011;7937;48.090;16.212;2023-02-08T02:42:09;19.77;;;11.00;;
15673;SDS011;7937;48.090;16.212;2023-02-08T02:45:33;22.47;;;11.40;;
15673;SDS011;7937;48.090;16.212;2023-02-08T02:52:11;20.53;;;10.87;;
15673;SDS011;7937;48.090;16.212;2023-02-08T02:55:19;22.37;;;11.73;;
15673;SDS011;7937;48.090;16.212;2023-02-08T02:58:25;19.33;;;10.70;;
15673;SDS011;7937;48.090;16.212;2023-02-08T03:01:29;18.57;;;11.30;;
15673;SDS011;7937;48.090;16.212;2023-02-08T03:20:37;21.37;;;12.30;;
15673;SDS011;7937;48.090;16.212;2023-02-08T03:24:26;23.43;;;12.03;;
15673;SDS011;7937;48.090;16.212;2023-02-08T03:27:54;26.83;;;11.97;;
15673;SDS011;7937;48.090;16.212;2023-02-08T03:34:35;23.80;;;12.33;;
15673;SDS011;7937;48.090;16.212;2023-02-08T03:38:12;20.67;;;11.67;;
15673;SDS011;7937;48.090;16.212;2023-02-08T03:41:24;21.83;;;12.03;;
15673;SDS011;7937;48.090;16.212;2023-02-08T03:44:32;21.63;;;12.27;;
15673;SDS011;7937;48.090;16.212;2023-02-08T03:47:41;20.17;;;11.17;;
15673;SDS011;7937;48.090;16.212;2023-02-08T03:50:49;23.40;;;12.20;;
15673;SDS011;7937;48.090;16.212;2023-02-08T03:53:54;20.30;;;10.80;;
15673;SDS011;7937;48.090;16.212;2023-02-08T03:57:07;25.30;;;12.83;;
15673;SDS011;7937;48.090;16.212;2023-02-08T04:00:15;20.40;;;11.13;;
15673;SDS011;7937;48.090;16.212;2023-02-08T04:03:21;22.67;;;12.07;;
15673;SDS011;7937;48.090;16.212;2023-02-08T04:06:26;24.53;;;12.70;;
15673;SDS011;7937;48.090;16.212;2023-02-08T04:09:29;24.83;;;12.37;;
15673;SDS011;7937;48.090;16.212;2023-02-08T04:12:31;21.67;;;12.37;;
15673;SDS011;7937;48.090;16.212;2023-02-08T04:15:33;22.87;;;12.53;;
15673;SDS011;7937;48.090;16.212;2023-02-08T04:18:35;25.30;;;12.93;;
15673;SDS011;7937;48.090;16.212;2023-02-08T04:21:37;23.10;;;11.53;;
15673;SDS011;7937;48.090;16.212;2023-02-08T04:24:39;20.93;;;11.83;;
15673;SDS011;7937;48.090;16.212;2023-02-08T04:27:41;23.33;;;12.37;;
15673;SDS011;7937;48.090;16.212;2023-02-08T04:30:43;23.10;;;11.77;;
15673;SDS011;7937;48.090;16.212;2023-02-08T04:33:45;26.97;;;12.03;;
15673;SDS011;7937;48.090;16.212;2023-02-08T04:36:48;23.70;;;13.27;;
15673;SDS011;7937;48.090;16.212;2023-02-08T04:39:50;22.87;;;11.83;;
15673;SDS011;7937;48.090;16.212;2023-02-08T04:42:51;22.63;;;11.53;;
15673;SDS011;7937;48.090;16.212;2023-02-08T04:45:54;22.83;;;12.53;;
15673;SDS011;7937;48.090;16.212;2023-02-08T04:48:56;19.93;;;11.97;;
15673;SDS011;7937;48.090;16.212;2023-02-08T04:51:59;21.83;;;11.37;;
15673;SDS011;7937;48.090;16.212;2023-02-08T04:55:01;27.30;;;12.87;;
15673;SDS011;7937;48.090;16.212;2023-02-08T04:58:03;24.33;;;12.67;;
15673;SDS011;7937;48.090;16.212;2023-02-08T05:01:06;28.47;;;13.07;;
15673;SDS011;7937;48.090;16.212;2023-02-08T05:04:11;24.03;;;12.33;;
15673;SDS011;7937;48.090;16.212;2023-02-08T05:07:13;21.97;;;11.77;;
15673;SDS011;7937;48.090;16.212;2023-02-08T05:10:15;20.37;;;11.53;;
15673;SDS011;7937;48.090;16.212;2023-02-08T05:13:17;21.20;;;11.70;;
15673;SDS011;7937;48.090;16.212;2023-02-08T05:16:20;23.40;;;12.47;;
15673;SDS011;7937;48.090;16.212;2023-02-08T05:19:22;25.77;;;12.23;;
15673;SDS011;7937;48.090;16.212;2023-02-08T05:22:24;23.17;;;11.67;;
15673;SDS011;7937;48.090;16.212;2023-02-08T05:25:26;22.00;;;10.73;;
15673;SDS011;7937;48.090;16.212;2023-02-08T05:28:28;20.63;;;11.30;;
15673;SDS011;7937;48.090;16.212;2023-02-08T05:31:30;24.37;;;11.60;;
15673;SDS011;7937;48.090;16.212;2023-02-08T05:34:32;18.83;;;11.27;;
15673;SDS011;7937;48.090;16.212;2023-02-08T05:37:34;20.73;;;11.10;;
15673;SDS011;7937;48.090;16.212;2023-02-08T05:40:36;24.17;;;11.90;;
15673;SDS011;7937;48.090;16.212;2023-02-08T05:43:38;19.50;;;10.37;;
15673;SDS011;7937;48.090;16.212;2023-02-08T05:46:40;22.63;;;12.30;;
15673;SDS011;7937;48.090;16.212;2023-02-08T05:49:43;15.37;;;9.70;;
15673;SDS011;7937;48.090;16.212;2023-02-08T05:52:45;17.27;;;9.50;;
15673;SDS011;7937;48.090;16.212;2023-02-08T05:55:47;19.77;;;10.17;;
15673;SDS011;7937;48.090;16.212;2023-02-08T05:58:49;19.17;;;11.47;;
15673;SDS011;7937;48.090;16.212;2023-02-08T06:01:51;18.53;;;9.40;;
15673;SDS011;7937;48.090;16.212;2023-02-08T06:04:53;16.93;;;10.13;;
15673;SDS011;7937;48.090;16.212;2023-02-08T06:07:55;18.50;;;9.90;;
15673;SDS011;7937;48.090;16.212;2023-02-08T06:10:57;20.93;;;11.13;;
15673;SDS011;7937;48.090;16.212;2023-02-08T06:13:59;17.63;;;10.63;;
15673;SDS011;7937;48.090;16.212;2023-02-08T06:17:01;21.37;;;10.53;;
15673;SDS011;7937;48.090;16.212;2023-02-08T06:20:04;22.27;;;11.27;;
15673;SDS011;7937;48.090;16.212;2023-02-08T06:23:06;20.03;;;9.87;;
15673;SDS011;7937;48.090;16.212;2023-02-08T06:26:08;21.17;;;10.33;;
15673;SDS011;7937;48.090;16.212;2023-02-08T06:29:10;19.17;;;9.73;;
15673;SDS011;7937;48.090;16.212;2023-02-08T06:32:12;21.00;;;10.47;;
15673;SDS011;7937;48.090;16.212;2023-02-08T06:35:14;18.57;;;10.47;;
15673;SDS011;7937;48.090;16.212;2023-02-08T06:38:16;18.83;;;9.70;;
15673;SDS011;7937;48.090;16.212;2023-02-08T06:41:19;19.33;;;10.67;;
15673;SDS011;7937;48.090;16.212;2023-02-08T06:44:21;18.27;;;9.83;;
15673;SDS011;7937;48.090;16.212;2023-02-08T06:47:24;20.77;;;10.30;;
15673;SDS011;7937;48.090;16.212;2023-02-08T06:50:27;19.50;;;10.20;;
15673;SDS011;7937;48.090;16.212;2023-02-08T06:53:29;24.00;;;11.40;;
15673;SDS011;7937;48.090;16.212;2023-02-08T06:56:31;20.97;;;9.90;;
15673;SDS011;7937;48.090;16.212;2023-02-08T06:59:33;20.43;;;10.03;;
15673;SDS011;7937;48.090;16.212;2023-02-08T07:02:35;17.13;;;10.03;;
15673;SDS011;7937;48.090;16.212;2023-02-08T07:05:37;22.23;;;10.50;;
15673;SDS011;7937;48.090;16.212;2023-02-08T07:08:40;21.23;;;10.23;;
15673;SDS011;7937;48.090;16.212;2023-02-08T07:11:43;18.03;;;10.97;;
15673;SDS011;7937;48.090;16.212;2023-02-08T07:14:45;19.43;;;10.80;;
15673;SDS011;7937;48.090;16.212;2023-02-08T07:17:47;22.40;;;10.97;;
15673;SDS011;7937;48.090;16.212;2023-02-08T07:20:49;19.00;;;10.70;;
15673;SDS011;7937;48.090;16.212;2023-02-08T07:23:51;19.90;;;10.60;;
15673;SDS011;7937;48.090;16.212;2023-02-08T07:26:53;18.00;;;10.43;;
15673;SDS011;7937;48.090;16.212;2023-02-08T07:29:55;20.07;;;10.63;;
15673;SDS011;7937;48.090;16.212;2023-02-08T07:32:57;17.43;;;10.33;;
15673;SDS011;7937;48.090;16.212;2023-02-08T07:35:59;17.23;;;9.83;;
15673;SDS011;7937;48.090;16.212;2023-02-08T07:39:01;19.27;;;10.80;;
15673;SDS011;7937;48.090;16.212;2023-02-08T07:42:03;20.07;;;10.60;;
15673;SDS011;7937;48.090;16.212;2023-02-08T07:45:14;19.13;;;10.20;;
15673;SDS011;7937;48.090;16.212;2023-02-08T07:48:16;19.10;;;10.03;;
15673;SDS011;7937;48.090;16.212;2023-02-08T07:51:18;19.47;;;10.63;;
15673;SDS011;7937;48.090;16.212;2023-02-08T07:54:20;20.00;;;10.70;;
15673;SDS011;7937;48.090;16.212;2023-02-08T07:57:22;18.83;;;10.57;;
15673;SDS011;7937;48.090;16.212;2023-02-08T08:00:24;18.27;;;10.47;;
15673;SDS011;7937;48.090;16.212;2023-02-08T08:03:27;21.17;;;10.60;;
15673;SDS011;7937;48.090;16.212;2023-02-08T08:06:29;19.47;;;11.13;;
15673;SDS011;7937;48.090;16.212;2023-02-08T08:09:31;17.20;;;10.70;;
15673;SDS011;7937;48.090;16.212;2023-02-08T08:12:33;21.20;;;11.73;;
15673;SDS011;7937;48.090;16.212;2023-02-08T08:15:35;18.60;;;10.50;;
15673;SDS011;7937;48.090;16.212;2023-02-08T08:18:38;21.13;;;10.40;;
15673;SDS011;7937;48.090;16.212;2023-02-08T08:21:40;17.80;;;10.20;;
15673;SDS011;7937;48.090;16.212;2023-02-08T08:24:42;20.73;;;11.40;;
15673;SDS011;7937;48.090;16.212;2023-02-08T08:27:44;22.20;;;10.63;;
15673;SDS011;7937;48.090;16.212;2023-02-08T08:30:46;24.93;;;12.77;;
15673;SDS011;7937;48.090;16.212;2023-02-08T08:33:48;23.03;;;13.17;;
15673;SDS011;7937;48.090;16.212;2023-02-08T08:36:51;22.50;;;11.93;;
15673;SDS011;7937;48.090;16.212;2023-02-08T08:39:53;21.37;;;12.10;;
15673;SDS011;7937;48.090;16.212;2023-02-08T08:42:55;20.53;;;11.73;;
15673;SDS011;7937;48.090;16.212;2023-02-08T08:45:58;22.27;;;11.43;;
15673;SDS011;7937;48.090;16.212;2023-02-08T08:49:00;17.57;;;11.37;;
15673;SDS011;7937;48.090;16.212;2023-02-08T08:52:02;20.27;;;11.87;;
15673;SDS011;7937;48.090;16.212;2023-02-08T08:55:07;22.63;;;12.23;;
15673;SDS011;7937;48.090;16.212;2023-02-08T08:58:09;19.83;;;11.03;;
15673;SDS011;7937;48.090;16.212;2023-02-08T09:01:11;22.13;;;13.30;;
15673;SDS011;7937;48.090;16.212;2023-02-08T09:04:14;21.30;;;12.27;;
15673;SDS011;7937;48.090;16.212;2023-02-08T09:07:17;22.13;;;13.03;;
15673;SDS011;7937;48.090;16.212;2023-02-08T09:10:19;22.00;;;13.07;;
15673;SDS011;7937;48.090;16.212;2023-02-08T09:13:21;23.37;;;12.73;;
15673;SDS011;7937;48.090;16.212;2023-02-08T09:16:23;20.50;;;12.63;;
15673;SDS011;7937;48.090;16.212;2023-02-08T09:19:25;23.13;;;13.77;;
15673;SDS011;7937;48.090;16.212;2023-02-08T09:22:28;22.30;;;12.77;;
15673;SDS011;7937;48.090;16.212;2023-02-08T09:25:30;24.43;;;14.87;;
15673;SDS011;7937;48.090;16.212;2023-02-08T09:28:33;24.23;;;13.73;;
15673;SDS011;7937;48.090;16.212;2023-02-08T09:31:36;26.07;;;14.60;;
15673;SDS011;7937;48.090;16.212;2023-02-08T09:34:38;26.67;;;13.33;;
15673;SDS011;7937;48.090;16.212;2023-02-08T09:37:40;20.77;;;12.77;;
15673;SDS011;7937;48.090;16.212;2023-02-08T09:40:48;26.97;;;15.40;;
15673;SDS011;7937;48.090;16.212;2023-02-08T09:54:32;22.90;;;14.60;;
15673;SDS011;7937;48.090;16.212;2023-02-08T09:57:38;32.50;;;17.93;;
15673;SDS011;7937;48.090;16.212;2023-02-08T10:00:40;30.03;;;18.30;;
15673;SDS011;7937;48.090;16.212;2023-02-08T10:03:46;30.63;;;17.53;;
15673;SDS011;7937;48.090;16.212;2023-02-08T10:06:52;25.73;;;15.23;;
15673;SDS011;7937;48.090;16.212;2023-02-08T10:09:55;27.77;;;17.10;;
15673;SDS011;7937;48.090;16.212;2023-02-08T10:13:20;27.07;;;15.67;;
15673;SDS011;7937;48.090;16.212;2023-02-08T10:20:01;27.43;;;15.83;;
15673;SDS011;7937;48.090;16.212;2023-02-08T10:26:43;27.90;;;16.13;;
15673;SDS011;7937;48.090;16.212;2023-02-08T10:30:03;27.30;;;16.73;;
15673;SDS011;7937;48.090;16.212;2023-02-08T10:33:16;30.37;;;17.67;;
15673;SDS011;7937;48.090;16.212;2023-02-08T10:36:27;33.07;;;17.80;;
15673;SDS011;7937;48.090;16.212;2023-02-08T10:39:33;37.00;;;19.07;;
15673;SDS011;7937;48.090;16.212;2023-02-08T10:42:37;33.30;;;19.00;;
15673;SDS011;7937;48.090;16.212;2023-02-08T10:45:42;31.47;;;17.97;;
15673;SDS011;7937;48.090;16.212;2023-02-08T10:49:16;33.13;;;18.23;;
15673;SDS011;7937;48.090;16.212;2023-02-08T10:52:26;31.30;;;18.53;;
15673;SDS011;7937;48.090;16.212;2023-02-08T10:55:29;30.67;;;18.50;;
15673;SDS011;7937;48.090;16.212;2023-02-08T10:58:36;30.47;;;18.70;;
15673;SDS011;7937;48.090;16.212;2023-02-08T11:01:38;30.13;;;18.03;;
15673;SDS011;7937;48.090;16.212;2023-02-08T11:04:55;29.97;;;18.00;;
15673;SDS011;7937;48.090;16.212;2023-02-08T11:08:14;25.13;;;15.73;;
15673;SDS011;7937;48.090;16.212;2023-02-08T11:11:20;30.23;;;17.43;;
15673;SDS011;7937;48.090;16.212;2023-02-08T11:14:26;30.43;;;17.70;;
15673;SDS011;7937;48.090;16.212;2023-02-08T11:17:51;24.00;;;15.23;;
15673;SDS011;7937;48.090;16.212;2023-02-08T11:20:56;26.63;;;15.43;;
15673;SDS011;7937;48.090;16.212;2023-02-08T11:24:16;29.20;;;17.60;;
15673;SDS011;7937;48.090;16.212;2023-02-08T11:30:35;30.17;;;18.33;;
15673;SDS011;7937;48.090;16.212;2023-02-08T11:33:37;27.10;;;16.73;;
15673;SDS011;7937;48.090;16.212;2023-02-08T11:37:02;28.30;;;17.00;;
15673;SDS011;7937;48.090;16.212;2023-02-08T11:40:18;28.77;;;17.00;;
15673;SDS011;7937;48.090;16.212;2023-02-08T11:43:25;35.50;;;17.97;;
15673;SDS011;7937;48.090;16.212;2023-02-08T11:46:33;29.90;;;18.27;;
15673;SDS011;7937;48.090;16.212;2023-02-08T11:49:38;28.80;;;16.60;;
15673;SDS011;7937;48.090;16.212;2023-02-08T11:52:42;25.33;;;15.33;;
15673;SDS011;7937;48.090;16.212;2023-02-08T11:55:46;23.40;;;14.80;;
15673;SDS011;7937;48.090;16.212;2023-02-08T11:59:24;20.43;;;14.23;;
15673;SDS011;7937;48.090;16.212;2023-02-08T12:02:35;23.53;;;14.50;;
15673;SDS011;7937;48.090;16.212;2023-02-08T12:05:50;20.83;;;13.70;;
15673;SDS011;7937;48.090;16.212;2023-02-08T12:09:25;20.63;;;12.87;;
15673;SDS011;7937;48.090;16.212;2023-02-08T12:12:40;22.33;;;14.50;;
15673;SDS011;7937;48.090;16.212;2023-02-08T12:22:23;20.63;;;12.73;;
15673;SDS011;7937;48.090;16.212;2023-02-08T12:29:20;20.07;;;12.10;;
15673;SDS011;7937;48.090;16.212;2023-02-08T12:36:45;19.63;;;12.53;;
15673;SDS011;7937;48.090;16.212;2023-02-08T12:39:47;19.77;;;12.60;;
15673;SDS011;7937;48.090;16.212;2023-02-08T12:50:19;18.10;;;11.60;;
15673;SDS011;7937;48.090;16.212;2023-02-08T12:53:48;18.70;;;12.00;;
15673;SDS011;7937;48.090;16.212;2023-02-08T12:56:55;21.27;;;11.90;;
15673;SDS011;7937;48.090;16.212;2023-02-08T13:00:04;20.40;;;13.00;;
15673;SDS011;7937;48.090;16.212;2023-02-08T13:06:35;21.00;;;13.07;;
15673;SDS011;7937;48.090;16.212;2023-02-08T13:16:19;16.13;;;10.67;;
15673;SDS011;7937;48.090;16.212;2023-02-08T13:19:30;16.43;;;10.60;;
15673;SDS011;7937;48.090;16.212;2023-02-08T13:22:44;17.53;;;10.70;;
15673;SDS011;7937;48.090;16.212;2023-02-08T13:25:48;15.60;;;9.10;;
15673;SDS011;7937;48.090;16.212;2023-02-08T13:28:54;14.80;;;8.43;;
15673;SDS011;7937;48.090;16.212;2023-02-08T13:38:37;15.27;;;9.57;;
15673;SDS011;7937;48.090;16.212;2023-02-08T13:41:39;16.17;;;10.03;;
15673;SDS011;7937;48.090;16.212;2023-02-08T13:44:52;13.90;;;9.37;;
15673;SDS011;7937;48.090;16.212;2023-02-08T13:47:58;18.53;;;10.67;;
15673;SDS011;7937;48.090;16.212;2023-02-08T13:51:02;16.63;;;10.60;;
15673;SDS011;7937;48.090;16.212;2023-02-08T13:54:09;15.63;;;10.17;;
15673;SDS011;7937;48.090;16.212;2023-02-08T14:16:35;15.53;;;9.80;;
15673;SDS011;7937;48.090;16.212;2023-02-08T14:19:43;17.53;;;10.10;;
15673;SDS011;7937;48.090;16.212;2023-02-08T14:22:48;17.07;;;9.63;;
15673;SDS011;7937;48.090;16.212;2023-02-08T14:25:53;14.17;;;9.60;;
15673;SDS011;7937;48.090;16.212;2023-02-08T14:28:58;17.13;;;10.47;;
15673;SDS011;7937;48.090;16.212;2023-02-08T14:32:02;14.90;;;10.03;;
15673;SDS011;7937;48.090;16.212;2023-02-08T14:35:07;15.17;;;10.30;;
15673;SDS011;7937;48.090;16.212;2023-02-08T14:44:44;14.60;;;7.90;;
15673;SDS011;7937;48.090;16.212;2023-02-08T14:47:50;11.40;;;7.60;;
15673;SDS011;7937;48.090;16.212;2023-02-08T14:50:56;11.53;;;7.77;;
15673;SDS011;7937;48.090;16.212;2023-02-08T14:54:14;12.63;;;8.27;;
15673;SDS011;7937;48.090;16.212;2023-02-08T14:57:23;12.67;;;7.90;;
15673;SDS011;7937;48.090;16.212;2023-02-08T15:00:31;16.17;;;8.47;;
15673;SDS011;7937;48.090;16.212;2023-02-08T15:03:35;17.60;;;9.43;;
15673;SDS011;7937;48.090;16.212;2023-02-08T15:07:23;12.80;;;7.90;;
15673;SDS011;7937;48.090;16.212;2023-02-08T15:10:20;14.73;;;8.77;;
15673;SDS011;7937;48.090;16.212;2023-02-08T15:13:24;16.33;;;8.97;;
15673;SDS011;7937;48.090;16.212;2023-02-08T15:16:41;13.77;;;8.13;;
15673;SDS011;7937;48.090;16.212;2023-02-08T15:19:44;13.37;;;8.47;;
15673;SDS011;7937;48.090;16.212;2023-02-08T15:22:47;11.90;;;7.70;;
15673;SDS011;7937;48.090;16.212;2023-02-08T15:26:23;13.20;;;8.43;;
15673;SDS011;7937;48.090;16.212;2023-02-08T15:29:26;14.40;;;8.13;;
15673;SDS011;7937;48.090;16.212;2023-02-08T15:32:44;15.63;;;10.30;;
15673;SDS011;7937;48.090;16.212;2023-02-08T15:36:06;15.27;;;8.93;;
15673;SDS011;7937;48.090;16.212;2023-02-08T15:39:34;14.87;;;9.23;;
15673;SDS011;7937;48.090;16.212;2023-02-08T15:42:41;16.07;;;10.00;;
15673;SDS011;7937;48.090;16.212;2023-02-08T15:45:54;15.90;;;9.87;;
15673;SDS011;7937;48.090;16.212;2023-02-08T15:48:58;16.83;;;10.00;;
15673;SDS011;7937;48.090;16.212;2023-02-08T15:52:01;14.57;;;8.53;;
15673;SDS011;7937;48.090;16.212;2023-02-08T15:55:06;13.90;;;8.10;;
15673;SDS011;7937;48.090;16.212;2023-02-08T16:01:35;16.40;;;9.20;;
15673;SDS011;7937;48.090;16.212;2023-02-08T16:04:41;14.43;;;9.33;;
15673;SDS011;7937;48.090;16.212;2023-02-08T16:07:45;13.13;;;8.33;;
15673;SDS011;7937;48.090;16.212;2023-02-08T16:10:50;13.87;;;8.10;;
15673;SDS011;7937;48.090;16.212;2023-02-08T16:13:56;14.47;;;8.27;;
15673;SDS011;7937;48.090;16.212;2023-02-08T16:17:00;15.47;;;8.87;;
15673;SDS011;7937;48.090;16.212;2023-02-08T16:20:25;12.87;;;7.93;;
15673;SDS011;7937;48.090;16.212;2023-02-08T16:23:36;13.23;;;8.47;;
15673;SDS011;7937;48.090;16.212;2023-02-08T16:29:41;13.87;;;7.97;;
15673;SDS011;7937;48.090;16.212;2023-02-08T16:32:48;10.87;;;7.43;;
15673;SDS011;7937;48.090;16.212;2023-02-08T16:35:52;13.43;;;8.43;;
15673;SDS011;7937;48.090;16.212;2023-02-08T16:45:27;14.90;;;8.27;;
15673;SDS011;7937;48.090;16.212;2023-02-08T16:48:33;13.10;;;7.77;;
15673;SDS011;7937;48.090;16.212;2023-02-08T16:51:37;12.17;;;6.43;;
15673;SDS011;7937;48.090;16.212;2023-02-08T16:54:44;11.97;;;7.13;;
15673;SDS011;7937;48.090;16.212;2023-02-08T16:57:47;12.20;;;6.93;;
15673;SDS011;7937;48.090;16.212;2023-02-08T17:00:56;12.47;;;7.33;;
15673;SDS011;7937;48.090;16.212;2023-02-08T17:04:00;14.13;;;7.00;;
15673;SDS011;7937;48.090;16.212;2023-02-08T17:07:02;13.40;;;7.37;;
15673;SDS011;7937;48.090;16.212;2023-02-08T17:10:06;11.17;;;6.97;;
15673;SDS011;7937;48.090;16.212;2023-02-08T17:13:10;11.90;;;6.87;;
15673;SDS011;7937;48.090;16.212;2023-02-08T17:16:22;10.13;;;5.43;;
15673;SDS011;7937;48.090;16.212;2023-02-08T17:19:27;10.33;;;6.17;;
15673;SDS011;7937;48.090;16.212;2023-02-08T17:22:32;10.50;;;6.43;;
15673;SDS011;7937;48.090;16.212;2023-02-08T17:25:34;13.20;;;7.03;;
15673;SDS011;7937;48.090;16.212;2023-02-08T17:28:38;15.27;;;6.27;;
15673;SDS011;7937;48.090;16.212;2023-02-08T17:31:41;14.07;;;6.80;;
15673;SDS011;7937;48.090;16.212;2023-02-08T17:34:44;13.27;;;6.43;;
15673;SDS011;7937;48.090;16.212;2023-02-08T17:37:48;10.27;;;6.77;;
15673;SDS011;7937;48.090;16.212;2023-02-08T17:40:53;12.60;;;6.30;;
15673;SDS011;7937;48.090;16.212;2023-02-08T17:43:56;10.33;;;6.03;;
15673;SDS011;7937;48.090;16.212;2023-02-08T17:46:58;12.23;;;6.40;;
15673;SDS011;7937;48.090;16.212;2023-02-08T17:50:02;14.30;;;6.47;;
15673;SDS011;7937;48.090;16.212;2023-02-08T17:53:06;11.43;;;5.77;;
15673;SDS011;7937;48.090;16.212;2023-02-08T17:56:09;9.97;;;6.03;;
15673;SDS011;7937;48.090;16.212;2023-02-08T17:59:14;8.20;;;5.70;;
15673;SDS011;7937;48.090;16.212;2023-02-08T18:02:17;10.03;;;5.70;;
15673;SDS011;7937;48.090;16.212;2023-02-08T18:05:22;10.63;;;5.53;;
15673;SDS011;7937;48.090;16.212;2023-02-08T18:08:26;10.97;;;6.67;;
15673;SDS011;7937;48.090;16.212;2023-02-08T18:11:29;11.83;;;6.27;;
15673;SDS011;7937;48.090;16.212;2023-02-08T18:14:32;9.90;;;6.07;;
15673;SDS011;7937;48.090;16.212;2023-02-08T18:17:39;10.43;;;6.07;;
15673;SDS011;7937;48.090;16.212;2023-02-08T18:20:45;10.90;;;5.70;;
15673;SDS011;7937;48.090;16.212;2023-02-08T18:23:48;9.67;;;5.63;;
15673;SDS011;7937;48.090;16.212;2023-02-08T18:26:52;11.03;;;7.07;;
15673;SDS011;7937;48.090;16.212;2023-02-08T18:29:55;11.10;;;6.10;;
15673;SDS011;7937;48.090;16.212;2023-02-08T18:32:58;10.80;;;6.43;;
15673;SDS011;7937;48.090;16.212;2023-02-08T18:36:02;10.70;;;6.87;;
15673;SDS011;7937;48.090;16.212;2023-02-08T18:39:12;9.70;;;5.83;;
15673;SDS011;7937;48.090;16.212;2023-02-08T18:42:16;9.93;;;5.83;;
15673;SDS011;7937;48.090;16.212;2023-02-08T18:45:20;9.83;;;5.47;;
15673;SDS011;7937;48.090;16.212;2023-02-08T18:48:23;10.27;;;6.23;;
15673;SDS011;7937;48.090;16.212;2023-02-08T18:51:29;9.93;;;6.63;;
15673;SDS011;7937;48.090;16.212;2023-02-08T18:54:33;12.63;;;6.43;;
15673;SDS011;7937;48.090;16.212;2023-02-08T18:57:35;11.60;;;6.23;;
15673;SDS011;7937;48.090;16.212;2023-02-08T19:00:40;9.60;;;6.13;;
15673;SDS011;7937;48.090;16.212;2023-02-08T19:03:44;11.23;;;6.40;;
15673;SDS011;7937;48.090;16.212;2023-02-08T19:06:48;11.00;;;6.00;;
15673;SDS011;7937;48.090;16.212;2023-02-08T19:09:51;9.50;;;6.13;;
15673;SDS011;7937;48.090;16.212;2023-02-08T19:12:55;12.10;;;6.47;;
15673;SDS011;7937;48.090;16.212;2023-02-08T19:15:58;8.67;;;6.03;;
15673;SDS011;7937;48.090;16.212;2023-02-08T19:19:05;10.23;;;5.83;;
15673;SDS011;7937;48.090;16.212;2023-02-08T19:22:08;10.30;;;6.23;;
15673;SDS011;7937;48.090;16.212;2023-02-08T19:25:11;12.90;;;7.00;;
15673;SDS011;7937;48.090;16.212;2023-02-08T19:28:17;10.73;;;6.60;;
15673;SDS011;7937;48.090;16.212;2023-02-08T19:31:20;9.80;;;6.50;;
15673;SDS011;7937;48.090;16.212;2023-02-08T19:34:25;12.77;;;7.10;;
15673;SDS011;7937;48.090;16.212;2023-02-08T19:37:29;12.93;;;7.00;;
15673;SDS011;7937;48.090;16.212;2023-02-08T19:40:32;11.57;;;6.40;;
15673;SDS011;7937;48.090;16.212;2023-02-08T19:43:35;12.67;;;7.27;;
15673;SDS011;7937;48.090;16.212;2023-02-08T19:46:38;12.30;;;7.37;;
15673;SDS011;7937;48.090;16.212;2023-02-08T19:49:45;15.20;;;7.90;;
15673;SDS011;7937;48.090;16.212;2023-02-08T19:52:48;14.33;;;7.20;;
15673;SDS011;7937;48.090;16.212;2023-02-08T19:59:05;15.07;;;7.53;;
15673;SDS011;7937;48.090;16.212;2023-02-08T20:02:11;13.57;;;8.00;;
15673;SDS011;7937;48.090;16.212;2023-02-08T20:05:15;10.33;;;6.23;;
15673;SDS011;7937;48.090;16.212;2023-02-08T20:08:18;11.30;;;6.40;;
15673;SDS011;7937;48.090;16.212;2023-02-08T20:11:29;13.30;;;7.37;;
15673;SDS011;7937;48.090;16.212;2023-02-08T20:14:34;10.40;;;6.10;;
15673;SDS011;7937;48.090;16.212;2023-02-08T20:17:37;11.47;;;7.47;;
15673;SDS011;7937;48.090;16.212;2023-02-08T20:20:40;14.07;;;7.27;;
15673;SDS011;7937;48.090;16.212;2023-02-08T20:23:45;10.50;;;6.37;;
15673;SDS011;7937;48.090;16.212;2023-02-08T20:26:49;10.10;;;6.57;;
15673;SDS011;7937;48.090;16.212;2023-02-08T20:29:58;13.60;;;7.93;;
15673;SDS011;7937;48.090;16.212;2023-02-08T20:33:03;16.77;;;7.73;;